createdAt,value
2023-01-13T00:03:52.276Z,6.27
2023-01-13T00:07:51.483Z,6.24
2023-01-13T00:11:00.739Z,6.23
2023-01-13T00:14:43.711Z,6.22
2023-01-13T00:18:08.965Z,6.22
2023-01-13T00:21:01.590Z,6.23
2023-01-13T00:24:20.447Z,6.22
2023-01-13T00:27:45.917Z,6.22
2023-01-13T00:31:17.919Z,6.24
2023-01-13T00:35:24.703Z,6.26
2023-01-13T00:39:13.303Z,6.27
2023-01-13T00:42:55.248Z,6.27
2023-01-13T00:47:10.090Z,6.26
2023-01-13T00:50:59.665Z,6.25
2023-01-13T00:54:46.240Z,6.24
2023-01-13T00:58:44.855Z,6.24
2023-01-13T01:02:44.731Z,6.21
2023-01-13T01:10:42.050Z,6.20
2023-01-13T01:14:46.377Z,6.20
2023-01-13T01:18:03.461Z,6.22
2023-01-13T01:21:32.794Z,6.22
2023-01-13T01:25:08.837Z,6.23
2023-01-13T01:28:33.004Z,6.22
2023-01-13T01:32:28.483Z,6.21
2023-01-13T01:36:24.700Z,6.20
2023-01-13T01:40:26.733Z,6.20
2023-01-13T01:44:27.629Z,6.20
2023-01-13T01:48:03.341Z,6.20
2023-01-13T01:51:47.641Z,6.19
2023-01-13T01:55:51.168Z,6.19
2023-01-13T01:59:53.725Z,6.18
2023-01-13T02:03:55.835Z,6.18
2023-01-13T02:09:04.654Z,6.17
2023-01-13T02:12:47.884Z,6.18
2023-01-13T02:17:02.901Z,6.18
2023-01-13T02:21:09.484Z,6.19
2023-01-13T02:25:06.784Z,6.20
2023-01-13T02:29:04.179Z,6.21
2023-01-13T02:32:58.968Z,6.22
2023-01-13T02:37:19.702Z,6.24
2023-01-13T03:34:21.104Z,6.24
2023-01-13T03:41:39.385Z,6.24
2023-01-13T03:45:19.121Z,6.24
2023-01-13T03:49:15.640Z,6.25
2023-01-13T03:52:25.978Z,6.25
2023-01-13T03:55:35.243Z,6.25
2023-01-13T03:58:36.853Z,6.26
2023-01-13T04:01:52.334Z,6.27
2023-01-13T04:05:37.130Z,6.28
2023-01-13T04:09:41.198Z,6.27
2023-01-13T04:13:14.538Z,6.28
2023-01-13T04:16:53.520Z,6.28
2023-01-13T04:20:28.205Z,6.29
2023-01-13T04:23:42.837Z,6.31
2023-01-13T04:27:18.307Z,6.33
2023-01-13T04:30:29.270Z,6.35
2023-01-13T04:33:42.296Z,6.35
2023-01-13T04:36:49.074Z,6.35
2023-01-13T04:40:01.796Z,6.35
2023-01-13T04:43:59.782Z,6.36
2023-01-13T04:47:31.251Z,6.37
2023-01-13T04:50:48.349Z,6.36
2023-01-13T04:54:02.445Z,6.36
2023-01-13T04:57:37.584Z,6.38
2023-01-13T05:01:01.924Z,6.40
2023-01-13T05:04:28.204Z,6.40
2023-01-13T05:08:31.122Z,6.41
2023-01-13T05:12:00.065Z,6.44
2023-01-13T05:15:26.349Z,6.45
2023-01-13T05:18:53.617Z,6.47
2023-01-13T05:22:07.724Z,6.51
2023-01-13T05:25:10.717Z,6.55
2023-01-13T05:29:02.961Z,6.56
2023-01-13T05:32:06.910Z,6.57
2023-01-13T05:35:58.881Z,6.57
2023-01-13T05:39:12.871Z,6.56
2023-01-13T05:42:53.101Z,6.56
2023-01-13T05:46:58.921Z,6.59
2023-01-13T05:50:16.011Z,6.61
2023-01-13T05:53:16.063Z,6.64
2023-01-13T05:56:53.339Z,6.66
2023-01-13T06:00:34.528Z,6.69
2023-01-13T06:04:07.648Z,6.70
2023-01-13T06:07:50.451Z,6.75
2023-01-13T06:11:49.696Z,6.75
2023-01-13T06:16:46.955Z,6.77
2023-01-13T06:20:03.872Z,6.77
2023-01-13T06:23:48.673Z,6.78
2023-01-13T06:28:08.463Z,6.80
2023-01-13T06:33:43.448Z,6.82
2023-01-13T06:36:28.227Z,6.83
2023-01-13T06:40:35.515Z,6.82
2023-01-13T06:44:11.161Z,6.84
2023-01-13T06:48:26.271Z,6.85
2023-01-13T06:53:41.292Z,6.85
2023-01-13T06:55:50.538Z,6.82
2023-01-13T06:58:42.725Z,6.79
2023-01-13T07:01:17.267Z,6.78
2023-01-13T07:03:45.721Z,6.77
2023-01-13T07:06:14.313Z,6.77
2023-01-13T07:08:48.725Z,6.77
2023-01-13T07:11:17.641Z,6.76
2023-01-13T07:14:04.329Z,6.76
2023-01-13T07:16:32.933Z,6.74
2023-01-13T07:19:04.873Z,6.73
2023-01-13T07:21:34.700Z,6.70
2023-01-13T07:24:03.492Z,6.69
2023-01-13T07:26:32.352Z,6.67
2023-01-13T07:29:37.697Z,6.66
2023-01-13T07:32:08.051Z,6.66
2023-01-13T07:35:07.990Z,6.67
2023-01-13T07:37:49.842Z,6.68
2023-01-13T07:40:18.535Z,6.69
2023-01-13T07:43:05.412Z,6.69
2023-01-13T07:45:42.271Z,6.69
2023-01-13T07:48:14.385Z,6.68
2023-01-13T07:51:14.543Z,6.68
2023-01-13T07:53:49.177Z,6.69
2023-01-13T07:56:23.315Z,6.70
2023-01-13T07:58:55.986Z,6.69
2023-01-13T08:01:33.988Z,6.70
2023-01-13T08:04:06.051Z,6.71
2023-01-13T08:06:37.086Z,6.72
2023-01-13T08:09:17.623Z,6.74
2023-01-13T08:12:06.117Z,6.78
2023-01-13T08:14:37.337Z,6.81
2023-01-13T08:17:10.443Z,6.84
2023-01-13T08:19:55.335Z,6.87
2023-01-13T08:22:25.959Z,6.87
2023-01-13T08:24:54.393Z,6.87
2023-01-13T08:27:26.073Z,6.86
2023-01-13T08:30:15.927Z,6.84
2023-01-13T08:33:18.480Z,6.83
2023-01-13T08:35:56.399Z,6.83
2023-01-13T08:41:56.270Z,6.88
2023-01-13T08:45:14.200Z,6.90
2023-01-13T08:47:47.676Z,6.96
2023-01-13T08:50:19.305Z,6.99
2023-01-13T08:52:54.230Z,7.04
2023-01-13T08:55:57.432Z,7.06
2023-01-13T08:59:13.157Z,7.08
2023-01-13T09:02:46.800Z,7.10
2023-01-13T09:09:39.903Z,7.09
2023-01-13T09:13:27.214Z,7.10
2023-01-13T09:15:57.030Z,7.09
2023-01-13T09:18:26.679Z,7.09
2023-01-13T09:21:23.895Z,7.11
2023-01-13T09:24:16.852Z,7.14
2023-01-13T09:26:45.879Z,7.19
2023-01-13T09:29:31.548Z,7.23
2023-01-13T09:32:46.846Z,7.24
2023-01-13T09:35:31.837Z,7.27
2023-01-13T09:38:47.145Z,7.29
2023-01-13T09:41:44.766Z,7.28
2023-01-13T09:45:23.257Z,7.26
2023-01-13T09:48:24.788Z,7.22
2023-01-13T09:52:03.977Z,7.20
2023-01-13T09:55:47.058Z,7.21
2023-01-13T09:58:48.208Z,7.24
2023-01-13T10:02:01.999Z,7.27
2023-01-13T10:05:00.000Z,7.29
2023-01-13T10:07:32.034Z,7.31
2023-01-13T10:10:09.260Z,7.32
2023-01-13T10:12:56.065Z,7.34
2023-01-13T10:16:43.607Z,7.36
2023-01-13T10:21:08.569Z,7.37
2023-01-13T10:25:21.184Z,7.41
2023-01-13T10:29:06.510Z,7.43
2023-01-13T10:31:35.597Z,7.44
2023-01-13T10:35:13.499Z,7.45
2023-01-13T10:38:36.693Z,7.45
2023-01-13T10:42:08.663Z,7.48
2023-01-13T10:45:38.248Z,7.53
2023-01-13T10:52:09.105Z,7.67
2023-01-13T10:54:52.297Z,7.70
2023-01-13T10:57:37.179Z,7.70
2023-01-13T11:03:49.557Z,7.62
2023-01-13T11:07:09.163Z,7.58
2023-01-13T11:10:53.253Z,7.55
2023-01-13T11:14:41.884Z,7.50
2023-01-13T11:18:22.745Z,7.48
2023-01-13T11:21:23.096Z,7.47
2023-01-13T11:24:29.904Z,7.46
2023-01-13T11:28:40.045Z,7.44
2023-01-13T11:32:12.222Z,7.40
2023-01-13T11:35:05.104Z,7.27
2023-01-13T11:37:52.298Z,7.17
2023-01-13T11:40:57.457Z,7.12
2023-01-13T11:44:29.830Z,7.11
2023-01-13T11:47:33.077Z,7.14
2023-01-13T11:57:45.423Z,7.18
2023-01-13T12:01:35.514Z,7.17
2023-01-13T12:05:44.055Z,7.15
2023-01-13T12:26:31.809Z,7.16
2023-01-13T12:29:29.297Z,7.12
2023-01-13T12:32:21.392Z,7.10
2023-01-13T12:35:12.447Z,7.07
2023-01-13T12:37:55.727Z,7.05
2023-01-13T12:41:14.415Z,7.05
2023-01-13T12:44:06.436Z,6.99
2023-01-13T12:46:56.641Z,6.94
2023-01-13T12:49:46.115Z,6.93
2023-01-13T12:52:18.929Z,6.89
2023-01-13T12:54:47.467Z,6.86
2023-01-13T12:57:43.992Z,6.82
2023-01-13T13:00:22.573Z,6.79
2023-01-13T13:03:51.676Z,6.75
2023-01-13T13:06:24.047Z,6.74
2023-01-13T13:09:22.123Z,6.73
2023-01-13T13:12:50.695Z,6.72
2023-01-13T13:16:10.056Z,6.72
2023-01-13T13:19:50.844Z,6.73
2023-01-13T13:22:54.063Z,6.71
2023-01-13T13:25:59.401Z,6.69
2023-01-13T13:29:29.739Z,6.67
2023-01-13T13:32:37.963Z,6.65
2023-01-13T13:35:26.018Z,6.62
2023-01-13T13:38:25.555Z,6.60
2023-01-13T13:41:38.367Z,6.60
2023-01-13T13:45:03.905Z,6.60
2023-01-13T13:48:07.463Z,6.61
2023-01-13T13:51:40.701Z,6.60
2023-01-13T13:55:26.409Z,6.59
2023-01-13T13:58:37.574Z,6.60
2023-01-13T14:01:44.257Z,6.61
2023-01-13T14:04:20.200Z,6.64
2023-01-13T14:07:28.456Z,6.69
2023-01-13T14:10:22.819Z,6.76
2023-01-13T14:13:48.016Z,6.76
2023-01-13T14:17:35.061Z,6.73
2023-01-13T14:20:27.500Z,6.72
2023-01-13T14:23:12.162Z,6.72
2023-01-13T14:26:26.606Z,6.72
2023-01-13T14:29:56.009Z,6.73
2023-01-13T14:33:17.102Z,6.73
2023-01-13T14:36:59.164Z,6.75
2023-01-13T14:40:32.200Z,6.77
2023-01-13T14:43:10.898Z,6.80
2023-01-13T14:46:22.743Z,6.81
2023-01-13T14:49:24.189Z,6.78
2023-01-13T14:52:33.502Z,6.74
2023-01-13T14:55:59.118Z,6.67
2023-01-13T14:59:13.144Z,6.58
2023-01-13T15:01:50.847Z,6.52
2023-01-13T15:04:54.257Z,6.48
2023-01-13T15:07:35.001Z,6.42
2023-01-13T15:10:20.024Z,6.36
2023-01-13T15:13:06.367Z,6.30
2023-01-13T15:16:09.829Z,6.25
2023-01-13T15:18:54.456Z,6.21
2023-01-13T15:21:46.228Z,6.20
2023-01-13T15:24:42.454Z,6.18
2023-01-13T15:27:30.402Z,6.12
2023-01-13T15:29:59.303Z,6.06
2023-01-13T15:32:59.531Z,6.03
2023-01-13T15:36:03.764Z,6.00
2023-01-13T15:38:42.750Z,5.94
2023-01-13T15:41:40.252Z,5.89
2023-01-13T15:44:35.426Z,5.84
2023-01-13T15:47:14.746Z,5.78
2023-01-13T15:49:58.795Z,5.72
2023-01-13T15:52:33.244Z,5.68
2023-01-13T15:55:03.573Z,5.63
2023-01-13T15:57:42.501Z,5.60
2023-01-13T16:00:36.956Z,5.54
2023-01-13T16:03:17.924Z,5.49
2023-01-13T16:06:01.134Z,5.45
2023-01-13T16:08:46.208Z,5.38
2023-01-13T16:11:15.030Z,5.32
2023-01-13T16:14:29.598Z,5.26
2023-01-13T16:17:06.363Z,5.17
2023-01-13T16:20:35.830Z,5.11
2023-01-13T16:23:45.131Z,5.05
2023-01-13T16:26:22.670Z,5.00
2023-01-13T16:29:14.496Z,4.96
2023-01-13T16:31:43.545Z,4.93
2023-01-13T16:34:40.730Z,4.90
2023-01-13T16:37:37.992Z,4.88
2023-01-13T16:40:22.083Z,4.88
2023-01-13T16:42:52.262Z,4.87
2023-01-13T16:45:23.469Z,4.86
2023-01-13T16:48:03.144Z,4.86
2023-01-13T16:50:59.010Z,4.86
2023-01-13T16:53:27.998Z,4.86
2023-01-13T16:55:56.316Z,4.86
2023-01-13T16:59:02.693Z,4.86
2023-01-13T17:01:37.181Z,4.85
2023-01-13T17:04:06.270Z,4.85
2023-01-13T17:06:45.779Z,4.87
2023-01-13T17:09:38.013Z,4.88
2023-01-13T17:12:06.811Z,4.86
2023-01-13T17:14:35.406Z,4.85
2023-01-13T17:17:39.983Z,4.84
2023-01-13T17:20:11.599Z,4.83
2023-01-13T17:22:42.418Z,4.83
2023-01-13T17:25:20.237Z,4.83
2023-01-13T17:27:54.975Z,4.82
2023-01-13T17:30:23.573Z,4.78
2023-01-13T17:32:52.746Z,4.75
2023-01-13T17:35:37.051Z,4.72
2023-01-13T17:38:14.500Z,4.69
2023-01-13T17:40:42.999Z,4.66
2023-01-13T17:43:14.328Z,4.63
2023-01-13T17:45:51.581Z,4.60
2023-01-13T17:48:28.310Z,4.56
2023-01-13T17:51:00.817Z,4.54
2023-01-13T17:53:31.997Z,4.53
2023-01-13T17:56:09.888Z,4.49
2023-01-13T17:58:46.934Z,4.46
2023-01-13T18:01:18.043Z,4.45
2023-01-13T18:03:47.343Z,4.44
2023-01-13T18:06:58.991Z,4.41
2023-01-13T18:09:27.772Z,4.37
2023-01-13T18:12:20.175Z,4.36
2023-01-13T18:14:51.280Z,4.37
2023-01-13T18:17:38.127Z,4.37
2023-01-13T18:20:32.370Z,4.36
2023-01-13T18:23:22.013Z,4.32
2023-01-13T18:26:34.770Z,4.30
2023-01-13T18:29:03.843Z,4.29
2023-01-13T18:31:34.914Z,4.29
2023-01-13T18:34:06.637Z,4.34
2023-01-13T18:36:35.514Z,4.39
2023-01-13T18:39:05.127Z,4.43
2023-01-13T18:41:57.997Z,4.44
2023-01-13T18:45:00.013Z,4.45
2023-01-13T18:47:46.811Z,4.44
2023-01-13T18:50:17.385Z,4.45
2023-01-13T18:52:55.293Z,4.42
2023-01-13T18:55:25.634Z,4.38
2023-01-13T18:57:57.629Z,4.35
2023-01-13T19:00:27.648Z,4.32
2023-01-13T19:05:40.863Z,4.25
2023-01-13T19:08:10.068Z,4.24
2023-01-13T19:10:40.044Z,4.26
2023-01-13T19:13:30.530Z,4.29
2023-01-13T19:16:09.368Z,4.32
2023-01-13T19:18:37.974Z,4.36
2023-01-13T19:21:07.348Z,4.40
2023-01-13T19:23:45.757Z,4.48
2023-01-13T19:26:17.089Z,4.56
2023-01-13T19:28:48.829Z,4.63
2023-01-13T19:31:20.733Z,4.65
2023-01-13T19:33:52.501Z,4.69
2023-01-13T19:36:20.956Z,4.71
2023-01-13T19:38:49.672Z,4.72
2023-01-13T19:41:36.524Z,4.71
2023-01-13T19:44:23.463Z,4.76
2023-01-13T19:46:54.256Z,4.79
2023-01-13T19:49:23.122Z,4.84
2023-01-13T19:51:52.012Z,4.86
2023-01-13T19:54:38.389Z,4.85
2023-01-13T19:57:35.711Z,4.78
2023-01-13T20:00:14.364Z,4.79
2023-01-13T20:02:56.976Z,4.81
2023-01-13T20:05:26.628Z,4.77
2023-01-13T20:07:58.251Z,4.72
2023-01-13T20:10:27.919Z,4.64
2023-01-13T20:12:59.312Z,4.56
2023-01-13T20:15:30.219Z,4.50
2023-01-13T20:18:04.878Z,4.46
2023-01-13T20:20:33.653Z,4.42
2023-01-13T20:23:11.409Z,4.38
2023-01-13T20:25:45.236Z,4.33
2023-01-13T20:28:13.921Z,4.29
2023-01-13T20:30:49.882Z,4.26
2023-01-13T20:33:34.870Z,4.23
2023-01-13T20:36:10.130Z,4.21
2023-01-13T20:38:40.940Z,4.19
2023-01-13T20:41:28.190Z,4.17
2023-01-13T20:43:57.241Z,4.13
2023-01-13T20:46:39.180Z,4.11
2023-01-13T20:49:17.529Z,4.09
2023-01-13T20:51:46.063Z,4.09
2023-01-13T20:54:23.803Z,4.09
2023-01-13T20:56:57.143Z,4.09
2023-01-13T20:59:35.791Z,4.11
2023-01-13T21:02:25.761Z,4.09
2023-01-13T21:04:54.414Z,4.08
2023-01-13T21:07:23.352Z,4.07
2023-01-13T21:10:04.727Z,4.06
2023-01-13T21:12:59.007Z,4.05
2023-01-13T21:15:40.278Z,4.04
2023-01-13T21:18:27.518Z,4.04
2023-01-13T21:21:11.891Z,4.05
2023-01-13T21:23:54.258Z,4.07
2023-01-13T21:26:29.476Z,4.06
2023-01-13T21:29:08.393Z,4.05
2023-01-13T21:31:49.170Z,4.05
2023-01-13T21:34:23.199Z,4.03
2023-01-13T21:37:00.442Z,4.02
2023-01-13T21:39:31.434Z,4.04
2023-01-13T21:42:18.406Z,4.05
2023-01-13T21:45:14.133Z,4.06
2023-01-13T21:47:52.190Z,4.06
2023-01-13T21:50:29.797Z,4.05
2023-01-13T21:53:18.041Z,4.05
2023-01-13T21:55:52.713Z,4.04
2023-01-13T21:58:21.058Z,4.05
2023-01-13T22:01:00.853Z,4.05
2023-01-13T22:03:55.289Z,4.09
2023-01-13T22:07:01.013Z,4.09
2023-01-13T22:09:37.981Z,4.09
2023-01-13T22:12:21.676Z,4.11
2023-01-13T22:14:52.397Z,4.13
2023-01-13T22:17:35.445Z,4.13
2023-01-13T22:20:18.320Z,4.11
2023-01-13T22:22:47.404Z,4.11
2023-01-13T22:25:20.388Z,4.14
2023-01-13T22:28:25.435Z,4.18
2023-01-13T22:31:13.550Z,4.19
2023-01-13T22:34:14.811Z,4.20
2023-01-13T22:37:11.977Z,4.25
2023-01-13T22:40:34.062Z,4.25
2023-01-13T22:46:37.194Z,4.27
2023-01-13T22:52:48.788Z,4.29
2023-01-13T22:55:19.499Z,4.33
2023-01-13T22:57:48.763Z,4.35
2023-01-13T23:00:32.351Z,4.34
2023-01-13T23:03:01.646Z,4.37
2023-01-13T23:05:42.685Z,4.37
2023-01-13T23:08:35.550Z,4.36
2023-01-13T23:11:55.593Z,4.38
2023-01-13T23:15:02.095Z,4.36
2023-01-13T23:17:40.884Z,4.38
2023-01-13T23:20:29.925Z,4.40
2023-01-13T23:23:02.046Z,4.41
2023-01-13T23:25:38.960Z,4.43
2023-01-13T23:28:22.279Z,4.45
2023-01-13T23:30:52.060Z,4.46
2023-01-13T23:33:47.632Z,4.45
2023-01-13T23:36:42.530Z,4.44
2023-01-13T23:39:31.355Z,4.44
2023-01-13T23:42:37.980Z,4.47
2023-01-13T23:45:07.468Z,4.49
2023-01-13T23:48:19.899Z,4.50
2023-01-13T23:51:01.902Z,4.52
2023-01-13T23:54:31.660Z,4.58
2023-01-13T23:57:10.676Z,4.59
